Time;durP1;ratioP1;P1;durP2;ratioP2;P2;SDS_P1;SDS_P2;PMS_P1;PMS_P2;Temp;Humidity;BMP_temperature;BMP_pressure;BME280_temperature;BME280_humidity;BME280_pressure;Samples;Min_cycle;Max_cycle;Signal;HPM_P1;HPM_P2
2022/04/24 00:02:12;;;;;;;23.37;19.20;;;;;;;14.26;53.20;95497.63;5071343;28;20218;-75
2022/04/24 00:04:39;;;;;;;28.47;18.77;;;;;;;14.21;53.41;95508.84;5071166;28;20428;-74
2022/04/24 00:07:07;;;;;;;24.07;20.00;;;;;;;14.22;53.68;95497.28;5071389;28;20506;-72
2022/04/24 00:09:34;;;;;;;22.40;18.70;;;;;;;14.24;53.76;95497.84;5071340;28;20424;-72
2022/04/24 00:12:00;;;;;;;25.73;19.40;;;;;;;14.27;53.90;95502.69;5069635;28;20425;-72
2022/04/24 00:14:26;;;;;;;25.20;19.10;;;;;;;14.29;53.39;95497.22;5071461;28;20793;-71
2022/04/24 00:16:51;;;;;;;23.53;18.17;;;;;;;14.29;53.55;95490.09;5070355;28;20543;-72
2022/04/24 00:19:19;;;;;;;24.83;19.80;;;;;;;14.28;53.52;95485.84;5070717;28;20217;-72
2022/04/24 00:21:47;;;;;;;24.33;19.47;;;;;;;14.22;53.52;95480.63;5071135;28;20265;-72
2022/04/24 00:24:13;;;;;;;24.60;19.17;;;;;;;14.23;53.78;95477.81;5071541;28;20520;-70
2022/04/24 00:26:38;;;;;;;22.87;19.60;;;;;;;14.18;53.85;95471.56;5071115;28;20891;-70
2022/04/24 00:29:04;;;;;;;22.53;18.30;;;;;;;14.22;53.97;95472.75;5071087;28;20248;-72
2022/04/24 00:31:30;;;;;;;29.77;19.80;;;;;;;14.26;54.15;95472.09;5071182;28;20193;-71
2022/04/24 00:33:55;;;;;;;35.93;20.53;;;;;;;14.29;53.86;95466.38;5071002;28;20179;-71
2022/04/24 00:36:21;;;;;;;29.37;20.57;;;;;;;14.28;54.44;95464.78;5071243;28;20218;-71
2022/04/24 00:38:46;;;;;;;25.20;19.07;;;;;;;14.34;54.18;95470.19;5071209;28;20208;-72
2022/04/24 00:41:12;;;;;;;25.47;20.40;;;;;;;14.36;55.00;95468.16;5071064;28;20563;-73
2022/04/24 00:43:37;;;;;;;27.03;18.93;;;;;;;14.43;54.36;95455.72;5077966;28;20743;-72
2022/04/24 00:46:14;;;;;;;23.07;19.20;;;;;;;14.39;54.75;95452.72;5077907;28;20773;-72
2022/04/24 00:48:40;;;;;;;25.23;20.30;;;;;;;14.43;54.59;95450.44;5072486;28;20596;-70
2022/04/24 00:51:08;;;;;;;22.37;19.03;;;;;;;14.40;54.40;95451.69;5064871;28;20442;-72
2022/04/24 00:53:33;;;;;;;27.17;20.77;;;;;;;14.36;54.53;95450.50;5068688;28;20441;-72
2022/04/24 00:55:59;;;;;;;21.50;18.20;;;;;;;14.30;54.82;95451.41;5068182;28;20445;-71
2022/04/24 00:58:25;;;;;;;24.37;19.53;;;;;;;14.37;55.00;95453.94;5070756;28;20194;-72
2022/04/24 01:00:52;;;;;;;26.37;20.47;;;;;;;14.42;54.82;95447.00;5071729;28;20431;-72
2022/04/24 01:03:17;;;;;;;23.00;18.90;;;;;;;14.47;55.11;95443.72;5070725;28;20229;-72
2022/04/24 01:05:43;;;;;;;24.10;18.70;;;;;;;14.54;54.56;95441.00;5071742;28;20456;-72
2022/04/24 01:08:08;;;;;;;22.63;17.93;;;;;;;14.49;54.43;95435.56;5071937;28;20287;-73
2022/04/24 01:10:38;;;;;;;22.83;18.83;;;;;;;14.51;54.83;95431.69;5070704;28;20233;-71
2022/04/24 01:13:04;;;;;;;22.97;18.07;;;;;;;14.47;54.54;95438.44;5079690;28;20187;-71
2022/04/24 01:15:30;;;;;;;26.10;18.30;;;;;;;14.29;55.02;95442.66;5070494;28;20444;-72
2022/04/24 01:17:56;;;;;;;23.67;18.97;;;;;;;14.13;55.49;95449.31;5069718;28;20566;-71
2022/04/24 01:20:22;;;;;;;24.37;19.00;;;;;;;14.16;55.77;95458.59;5070475;28;20463;-72
2022/04/24 01:22:47;;;;;;;25.13;18.70;;;;;;;14.29;55.85;95453.22;5070978;28;20453;-72
2022/04/24 01:25:14;;;;;;;20.30;17.43;;;;;;;14.41;55.41;95442.75;5070730;28;20269;-72
2022/04/24 01:27:39;;;;;;;25.37;17.93;;;;;;;14.41;55.63;95441.94;5070327;28;20206;-72
2022/04/24 01:30:06;;;;;;;22.77;18.07;;;;;;;14.47;55.70;95442.91;5078783;28;20436;-71
2022/04/24 01:32:32;;;;;;;24.10;18.97;;;;;;;14.41;55.70;95455.94;5073155;28;20202;-74
2022/04/24 01:34:57;;;;;;;25.63;19.07;;;;;;;14.35;55.62;95462.06;5082426;28;20429;-73
2022/04/24 01:37:23;;;;;;;23.43;17.83;;;;;;;14.40;55.60;95458.78;5073105;28;20509;-71
2022/04/24 01:39:48;;;;;;;28.00;18.77;;;;;;;14.43;55.60;95460.97;5074255;28;20188;-71
2022/04/24 01:42:14;;;;;;;21.70;16.70;;;;;;;14.53;55.46;95461.28;5074772;28;20206;-73
2022/04/24 01:44:39;;;;;;;25.07;18.40;;;;;;;14.54;55.21;95464.72;5072453;28;20182;-71
2022/04/24 01:47:05;;;;;;;23.90;17.40;;;;;;;14.49;55.79;95462.72;5073067;28;20202;-71
2022/04/24 01:49:30;;;;;;;23.00;17.67;;;;;;;14.58;55.09;95455.34;5075335;28;20201;-72
2022/04/24 01:51:56;;;;;;;22.87;17.97;;;;;;;14.56;55.45;95463.47;5074180;28;20684;-71
2022/04/24 01:54:21;;;;;;;21.03;17.27;;;;;;;14.43;55.70;95490.75;5080653;28;20229;-70
2022/04/24 01:56:47;;;;;;;22.50;17.70;;;;;;;14.29;56.48;95505.91;5082645;28;20213;-72
2022/04/24 01:59:12;;;;;;;23.30;18.23;;;;;;;14.25;56.72;95525.00;5074273;28;20277;-69
2022/04/24 02:01:38;;;;;;;23.43;18.20;;;;;;;14.31;56.77;95523.31;5073620;28;20179;-71
2022/04/24 02:04:03;;;;;;;21.13;17.20;;;;;;;14.30;56.41;95512.00;5073942;28;20236;-72
2022/04/24 02:06:29;;;;;;;21.70;16.83;;;;;;;14.45;56.08;95514.28;5074139;28;20299;-71
2022/04/24 02:08:54;;;;;;;21.20;16.80;;;;;;;14.56;55.67;95518.81;5073549;28;20261;-71
2022/04/24 02:11:20;;;;;;;21.37;16.77;;;;;;;14.63;55.69;95510.84;5068160;28;20191;-72
2022/04/24 02:13:46;;;;;;;20.50;16.40;;;;;;;14.64;55.96;95516.91;5073714;28;20198;-71
2022/04/24 02:16:11;;;;;;;21.33;16.63;;;;;;;14.72;55.76;95519.31;5074177;28;20475;-71
2022/04/24 02:18:37;;;;;;;20.30;16.90;;;;;;;14.72;55.92;95520.09;5073863;28;20261;-71
2022/04/24 02:21:03;;;;;;;22.00;17.27;;;;;;;14.70;56.24;95519.50;5066575;28;20191;-71
2022/04/24 02:23:28;;;;;;;21.90;17.30;;;;;;;14.74;56.21;95527.81;5072023;28;20580;-71
2022/04/24 02:25:54;;;;;;;21.43;17.27;;;;;;;14.76;55.83;95522.31;5079279;28;20214;-72
2022/04/24 02:28:19;;;;;;;20.97;16.60;;;;;;;14.70;56.44;95526.63;5075751;28;20612;-72
2022/04/24 02:30:45;;;;;;;30.33;22.70;;;;;;;14.71;56.66;95528.25;5073247;28;20179;-71
2022/04/24 02:33:10;;;;;;;26.70;20.23;;;;;;;14.77;56.98;95543.16;5082352;28;20270;-71
2022/04/24 02:35:36;;;;;;;24.47;18.30;;;;;;;14.77;57.11;95551.06;5073210;28;20270;-73
2022/04/24 02:38:01;;;;;;;20.83;16.73;;;;;;;14.81;57.15;95544.34;5073323;28;20206;-72
2022/04/24 02:40:27;;;;;;;19.67;16.97;;;;;;;14.85;56.92;95553.44;5071643;28;20235;-71
2022/04/24 02:42:53;;;;;;;21.57;16.70;;;;;;;14.85;57.50;95556.09;5071057;28;20733;-71
2022/04/24 02:45:19;;;;;;;22.83;17.70;;;;;;;14.87;57.38;95548.72;5071385;28;20603;-71
2022/04/24 02:47:45;;;;;;;20.40;15.90;;;;;;;14.84;57.33;95541.28;5072883;28;20598;-72
2022/04/24 02:50:11;;;;;;;20.60;17.30;;;;;;;14.85;57.41;95539.44;5072602;28;20471;-71
2022/04/24 02:52:53;;;;;;;23.27;18.40;;;;;;;14.78;57.36;95533.44;5072456;28;20940;-71
2022/04/24 02:55:19;;;;;;;20.83;16.83;;;;;;;14.74;57.55;95531.25;5072493;28;20182;-71
2022/04/24 02:57:46;;;;;;;24.93;17.83;;;;;;;14.76;57.66;95532.84;5069601;28;20904;-71
2022/04/24 03:00:13;;;;;;;21.03;18.27;;;;;;;14.70;57.81;95534.53;5074151;28;20432;-72
2022/04/24 03:02:43;;;;;;;21.30;17.10;;;;;;;14.61;57.98;95533.19;5054565;28;20471;-71
2022/04/24 03:05:10;;;;;;;21.60;17.87;;;;;;;14.59;58.38;95526.31;5072307;28;20470;-72
2022/04/24 03:07:36;;;;;;;26.40;18.37;;;;;;;14.56;57.80;95531.19;5072348;28;20456;-72
2022/04/24 03:10:01;;;;;;;22.93;18.83;;;;;;;14.59;58.43;95530.75;5072163;28;20428;-74
2022/04/24 03:12:29;;;;;;;26.30;18.77;;;;;;;14.65;57.94;95535.16;5072792;28;20174;-72
2022/04/24 03:14:55;;;;;;;23.30;18.50;;;;;;;14.61;58.05;95533.19;5054570;28;20594;-72
2022/04/24 03:17:20;;;;;;;19.73;16.40;;;;;;;14.58;58.15;95540.50;5071972;28;20602;-71
2022/04/24 03:19:46;;;;;;;23.60;19.00;;;;;;;14.56;58.77;95533.81;5071799;28;20182;-72
2022/04/24 03:22:11;;;;;;;22.40;17.90;;;;;;;14.61;58.54;95527.91;5071679;28;20279;-72
2022/04/24 03:24:37;;;;;;;26.83;18.37;;;;;;;14.62;58.36;95534.81;5070789;28;20651;-70
2022/04/24 03:27:03;;;;;;;23.00;17.93;;;;;;;14.59;58.65;95533.38;5072626;28;20236;-72
2022/04/24 03:29:29;;;;;;;27.63;19.87;;;;;;;14.55;58.62;95540.94;5071929;28;20190;-72
2022/04/24 03:31:54;;;;;;;21.80;18.30;;;;;;;14.53;58.78;95535.06;5072272;28;20512;-72
2022/04/24 03:34:20;;;;;;;23.80;18.73;;;;;;;14.51;58.82;95539.75;5071675;28;20192;-74
2022/04/24 03:36:46;;;;;;;24.57;18.60;;;;;;;14.52;59.23;95546.63;5069390;28;20218;-73
2022/04/24 03:39:12;;;;;;;22.53;17.80;;;;;;;14.52;59.42;95548.47;5065810;28;20193;-73
2022/04/24 03:41:37;;;;;;;24.73;17.70;;;;;;;14.56;59.64;95547.81;5060851;28;20452;-73
2022/04/24 03:44:04;;;;;;;25.50;18.37;;;;;;;14.63;59.32;95552.22;5074241;28;20845;-72
2022/04/24 03:46:30;;;;;;;23.67;19.20;;;;;;;14.67;59.30;95553.38;5071220;28;20203;-72
2022/04/24 03:48:55;;;;;;;23.33;19.20;;;;;;;14.71;59.35;95565.16;5072574;28;20454;-72
2022/04/24 03:51:21;;;;;;;22.90;18.60;;;;;;;14.77;59.02;95561.63;5068797;28;20179;-73
2022/04/24 03:53:47;;;;;;;22.07;18.57;;;;;;;14.78;58.84;95560.59;5070916;28;20260;-71
2022/04/24 03:56:12;;;;;;;26.90;19.00;;;;;;;14.74;58.80;95562.09;5072975;28;20252;-70
2022/04/24 03:58:38;;;;;;;22.63;18.27;;;;;;;14.72;59.09;95564.13;5073062;28;20197;-73
2022/04/24 04:01:03;;;;;;;24.93;18.17;;;;;;;14.63;59.27;95557.47;5073168;28;20548;-73
2022/04/24 04:03:28;;;;;;;23.70;18.37;;;;;;;14.65;59.18;95556.25;5071086;28;20243;-73
2022/04/24 04:05:54;;;;;;;22.23;18.40;;;;;;;14.66;59.57;95563.16;5071449;28;20206;-73
2022/04/24 04:08:19;;;;;;;23.90;18.90;;;;;;;14.68;59.48;95565.59;5071111;28;20508;-73
2022/04/24 04:10:45;;;;;;;23.87;18.77;;;;;;;14.65;59.64;95572.06;5071599;28;20182;-72
2022/04/24 04:13:10;;;;;;;21.80;18.00;;;;;;;14.64;59.60;95573.09;5074753;28;20261;-73
2022/04/24 04:15:36;;;;;;;24.77;20.27;;;;;;;14.70;59.85;95576.72;5070971;28;20251;-74
2022/04/24 04:18:02;;;;;;;20.97;16.90;;;;;;;14.69;59.80;95577.75;5071125;28;20191;-74
2022/04/24 04:20:27;;;;;;;25.10;20.10;;;;;;;14.69;60.14;95583.00;5070974;28;20746;-71
2022/04/24 04:22:53;;;;;;;22.30;17.67;;;;;;;14.64;60.02;95581.00;5064618;28;20624;-72
2022/04/24 04:25:23;;;;;;;23.90;19.67;;;;;;;14.55;60.19;95593.66;5071721;28;20182;-72
2022/04/24 04:27:49;;;;;;;22.00;18.40;;;;;;;14.54;60.86;95599.16;5078423;28;20205;-73
2022/04/24 04:30:15;;;;;;;23.73;19.00;;;;;;;14.46;60.94;95610.78;5070317;28;20430;-72
2022/04/24 04:32:41;;;;;;;27.00;20.73;;;;;;;14.44;61.34;95639.97;5067888;28;20433;-73
2022/04/24 04:35:09;;;;;;;25.67;18.60;;;;;;;13.88;62.29;95646.03;5078364;28;20192;-73
2022/04/24 04:37:35;;;;;;;17.47;14.80;;;;;;;13.58;62.15;95642.13;5071255;28;20308;-73
2022/04/24 04:40:02;;;;;;;16.20;13.17;;;;;;;13.63;61.74;95665.97;5070846;28;20517;-72
2022/04/24 04:42:28;;;;;;;12.00;8.50;;;;;;;13.68;60.75;95657.44;5065140;28;20471;-72
2022/04/24 04:44:53;;;;;;;9.97;5.47;;;;;;;13.28;60.42;95653.13;5071078;28;20797;-73
2022/04/24 04:47:19;;;;;;;7.00;4.13;;;;;;;12.85;61.34;95658.91;5070886;28;20202;-72
2022/04/24 04:49:44;;;;;;;6.57;2.60;;;;;;;12.94;60.54;95668.19;5071980;28;20256;-72
2022/04/24 04:52:10;;;;;;;2.70;2.13;;;;;;;12.82;60.75;95669.81;5067169;28;20261;-72
2022/04/24 04:54:35;;;;;;;2.60;1.60;;;;;;;12.68;60.46;95669.81;5070212;28;20262;-73
2022/04/24 04:57:01;;;;;;;1.40;1.10;;;;;;;12.64;60.60;95671.22;5070880;28;20258;-72
2022/04/24 04:59:26;;;;;;;1.37;0.90;;;;;;;12.46;61.04;95676.28;5070993;28;20692;-72
2022/04/24 05:01:52;;;;;;;2.20;0.97;;;;;;;12.69;60.51;95681.94;5075828;28;20209;-72
2022/04/24 05:04:17;;;;;;;1.57;0.90;;;;;;;12.70;60.75;95686.19;5070274;28;20190;-73
2022/04/24 05:06:42;;;;;;;1.30;0.80;;;;;;;12.74;60.54;95690.03;5074445;28;20210;-74
2022/04/24 05:09:08;;;;;;;1.07;0.70;;;;;;;12.78;60.62;95685.19;5074089;28;20273;-73
2022/04/24 05:11:33;;;;;;;1.67;0.87;;;;;;;12.79;60.27;95681.53;5074084;28;20190;-72
2022/04/24 05:13:59;;;;;;;1.20;0.70;;;;;;;12.49;60.53;95692.44;5074246;28;20179;-72
2022/04/24 05:16:24;;;;;;;0.80;0.50;;;;;;;12.58;60.16;95691.25;5072416;28;20202;-72
2022/04/24 05:18:50;;;;;;;1.20;0.60;;;;;;;12.55;60.45;95690.84;5074741;28;20660;-71
2022/04/24 05:21:17;;;;;;;6.67;0.80;;;;;;;12.01;61.11;95698.63;5075232;28;20903;-72
2022/04/24 05:23:45;;;;;;;1.13;0.60;;;;;;;12.09;61.19;95703.72;5074431;28;20232;-72
2022/04/24 05:26:12;;;;;;;9.30;0.70;;;;;;;12.06;60.62;95698.03;5074208;28;21040;-72
2022/04/24 05:28:37;;;;;;;1.37;0.60;;;;;;;12.02;61.09;95708.13;5073903;28;20922;-73
2022/04/24 05:31:03;;;;;;;1.30;0.67;;;;;;;12.12;61.05;95711.19;5076528;28;20432;-72
2022/04/24 05:33:28;;;;;;;1.57;0.60;;;;;;;12.17;60.96;95707.94;5076252;28;20178;-73
2022/04/24 05:35:54;;;;;;;1.17;0.60;;;;;;;12.35;60.04;95712.63;5074696;28;20259;-72
2022/04/24 05:38:19;;;;;;;5.40;0.70;;;;;;;12.19;60.98;95716.44;5073908;28;20672;-72
2022/04/24 05:40:45;;;;;;;1.10;0.60;;;;;;;12.07;60.45;95721.47;5072116;28;20232;-73
2022/04/24 05:43:10;;;;;;;2.30;0.60;;;;;;;12.16;60.62;95719.47;5057386;28;20207;-71
2022/04/24 05:45:36;;;;;;;1.63;0.60;;;;;;;12.09;60.35;95714.22;5092867;28;20188;-72
2022/04/24 05:48:02;;;;;;;2.40;0.70;;;;;;;12.11;60.55;95721.91;5094276;28;20219;-71
2022/04/24 05:50:27;;;;;;;1.50;0.60;;;;;;;11.67;61.31;95729.19;5092367;28;20419;-72
2022/04/24 05:52:55;;;;;;;1.20;0.53;;;;;;;12.08;60.54;95728.34;5094506;28;20557;-71
2022/04/24 05:55:20;;;;;;;1.10;0.50;;;;;;;12.02;60.55;95729.13;5094251;28;20197;-71
2022/04/24 05:57:49;;;;;;;2.10;0.50;;;;;;;12.07;60.74;95721.47;5094253;28;20450;-72
2022/04/24 06:00:16;;;;;;;0.80;0.53;;;;;;;11.98;60.77;95728.72;5093411;28;20235;-71
2022/04/24 06:02:42;;;;;;;0.80;0.50;;;;;;;11.96;61.09;95724.66;5077868;28;20513;-71
2022/04/24 06:05:10;;;;;;;1.20;0.50;;;;;;;11.76;60.87;95735.88;5094030;28;20431;-72
2022/04/24 06:07:36;;;;;;;1.10;0.60;;;;;;;11.86;60.97;95734.69;5093602;28;20451;-70
2022/04/24 06:10:01;;;;;;;0.90;0.50;;;;;;;11.73;61.67;95743.34;5093697;28;20435;-71
2022/04/24 06:12:27;;;;;;;2.27;0.60;;;;;;;11.87;61.30;95739.75;5089512;28;20521;-71
2022/04/24 06:14:52;;;;;;;1.27;0.60;;;;;;;11.88;61.37;95738.75;5079611;28;20193;-71
2022/04/24 06:17:18;;;;;;;0.80;0.50;;;;;;;11.67;60.96;95732.59;5084136;28;20206;-70
2022/04/24 06:19:43;;;;;;;0.80;0.50;;;;;;;11.85;61.09;95731.28;5088627;28;20657;-72
2022/04/24 06:22:09;;;;;;;1.17;0.50;;;;;;;11.88;60.88;95737.94;5086156;28;20182;-71
2022/04/24 06:24:34;;;;;;;1.30;0.50;;;;;;;11.95;60.82;95741.41;5084066;28;20273;-71
2022/04/24 06:27:00;;;;;;;1.70;0.60;;;;;;;11.95;60.85;95739.56;5093723;28;20205;-71
2022/04/24 06:29:25;;;;;;;1.17;0.50;;;;;;;11.98;60.83;95733.97;5084828;28;20281;-70
2022/04/24 06:31:51;;;;;;;0.80;0.50;;;;;;;12.10;61.14;95728.16;5092428;28;20610;-69
2022/04/24 06:34:16;;;;;;;1.10;0.50;;;;;;;12.05;60.91;95725.28;5082637;28;20254;-71
2022/04/24 06:36:42;;;;;;;0.80;0.50;;;;;;;12.05;60.88;95727.91;5092945;28;20296;-70
2022/04/24 06:39:07;;;;;;;1.00;0.50;;;;;;;12.17;60.73;95720.28;5093166;28;20231;-70
2022/04/24 06:41:33;;;;;;;0.80;0.50;;;;;;;12.22;60.17;95718.69;5090646;28;20185;-72
2022/04/24 06:43:58;;;;;;;1.10;0.60;;;;;;;12.06;60.30;95724.28;5070409;28;20681;-69
2022/04/24 06:46:24;;;;;;;1.20;0.50;;;;;;;12.10;60.63;95715.03;5093401;28;20209;-69
2022/04/24 06:48:49;;;;;;;1.10;0.60;;;;;;;12.00;60.53;95717.22;5085549;28;20216;-70
2022/04/24 06:51:15;;;;;;;0.80;0.50;;;;;;;11.92;60.61;95728.66;5081348;28;20649;-72
2022/04/24 06:53:41;;;;;;;0.80;0.40;;;;;;;11.97;60.62;95721.03;5092492;28;20178;-70
2022/04/24 06:56:07;;;;;;;1.20;0.50;;;;;;;12.02;61.00;95729.13;5092641;28;20236;-70
2022/04/24 06:58:32;;;;;;;0.80;0.50;;;;;;;12.10;60.84;95726.31;5070478;28;20452;-73
2022/04/24 07:00:58;;;;;;;2.33;0.60;;;;;;;12.15;60.80;95731.00;5074358;28;20191;-72
2022/04/24 07:03:26;;;;;;;1.77;0.60;;;;;;;12.23;60.21;95737.88;5073493;28;20710;-68
2022/04/24 07:05:56;;;;;;;1.33;0.50;;;;;;;12.13;60.79;95725.94;5083471;28;20236;-68
2022/04/24 07:08:24;;;;;;;1.17;0.73;;;;;;;12.09;61.16;95729.97;5092404;28;20432;-70
2022/04/24 07:10:50;;;;;;;0.80;0.50;;;;;;;12.16;61.36;95744.94;5074467;28;20444;-72
2022/04/24 07:13:16;;;;;;;1.20;0.70;;;;;;;12.22;61.18;95738.91;5068532;28;20445;-74
2022/04/24 07:15:41;;;;;;;0.80;0.60;;;;;;;12.36;60.67;95747.59;5075753;28;20423;-71
2022/04/24 07:18:07;;;;;;;0.80;0.60;;;;;;;12.00;61.65;95740.84;5086910;28;20641;-70
2022/04/24 07:20:33;;;;;;;1.10;0.60;;;;;;;12.14;61.38;95751.19;5091995;28;20192;-71
2022/04/24 07:23:01;;;;;;;2.50;0.60;;;;;;;12.03;61.64;95749.13;5091578;28;20969;-71
2022/04/24 07:25:31;;;;;;;1.80;0.67;;;;;;;12.19;61.51;95757.66;5090445;28;20212;-71
2022/04/24 07:27:57;;;;;;;0.90;0.70;;;;;;;12.39;61.28;95761.16;5090575;28;20860;-71
2022/04/24 07:30:23;;;;;;;1.50;0.70;;;;;;;12.39;61.30;95760.34;5089616;28;20912;-71
2022/04/24 07:32:50;;;;;;;0.80;0.50;;;;;;;12.53;60.98;95766.44;5092655;28;20433;-71
2022/04/24 07:35:18;;;;;;;0.80;0.50;;;;;;;12.45;61.24;95762.16;5091671;28;20219;-70
2022/04/24 07:37:44;;;;;;;1.10;0.60;;;;;;;12.46;60.87;95765.63;5090928;28;20466;-70
2022/04/24 07:40:11;;;;;;;0.90;0.70;;;;;;;12.46;60.54;95770.88;5091687;28;20432;-70
2022/04/24 07:43:04;;;;;;;0.80;0.50;;;;;;;12.53;60.25;95769.06;5084955;28;20473;-71
2022/04/24 07:45:30;;;;;;;0.90;0.60;;;;;;;12.60;60.49;95762.81;5077793;28;20506;-71
2022/04/24 07:47:57;;;;;;;1.20;1.00;;;;;;;12.49;59.95;95765.19;5091748;28;20435;-70
2022/04/24 07:50:28;;;;;;;1.07;0.70;;;;;;;12.56;59.72;95761.56;5091290;28;20930;-71
2022/04/24 07:52:54;;;;;;;0.80;0.60;;;;;;;12.58;59.98;95764.03;5091891;28;20779;-70
2022/04/24 07:55:24;;;;;;;1.67;0.70;;;;;;;12.77;60.18;95764.22;5083362;28;20421;-70
2022/04/24 07:57:53;;;;;;;1.00;0.60;;;;;;;12.86;59.33;95770.91;5092360;28;20202;-71
2022/04/24 08:00:21;;;;;;;2.10;0.70;;;;;;;12.95;60.07;95769.72;5081298;28;20425;-70
2022/04/24 08:03:01;;;;;;;0.90;0.70;;;;;;;13.08;60.16;95765.47;5091820;28;20467;-70
2022/04/24 08:05:31;;;;;;;1.33;0.70;;;;;;;13.10;59.45;95771.34;5071008;28;20493;-70
2022/04/24 08:08:01;;;;;;;1.47;0.73;;;;;;;13.07;59.84;95769.91;5076512;28;20503;-70
2022/04/24 08:10:30;;;;;;;1.53;0.70;;;;;;;13.14;60.49;95762.00;5073497;28;20430;-70
2022/04/24 08:12:56;;;;;;;3.43;0.60;;;;;;;13.17;60.54;95766.88;5061370;28;20437;-71
2022/04/24 08:15:22;;;;;;;0.83;0.60;;;;;;;13.14;59.67;95767.25;5078856;28;20438;-70
2022/04/24 08:17:47;;;;;;;3.67;0.77;;;;;;;13.09;60.27;95765.25;5090746;28;20197;-70
2022/04/24 08:20:14;;;;;;;2.50;0.80;;;;;;;13.04;60.30;95768.50;5086963;28;20856;-71
2022/04/24 08:22:43;;;;;;;2.43;0.70;;;;;;;13.02;61.03;95783.66;5091260;28;20194;-70
2022/04/24 08:25:11;;;;;;;1.20;1.10;;;;;;;13.03;60.71;95785.28;5062749;28;20421;-72
2022/04/24 08:27:37;;;;;;;2.40;0.70;;;;;;;13.01;60.51;95794.38;5086359;28;20491;-71
2022/04/24 08:30:04;;;;;;;1.30;1.20;;;;;;;13.02;61.00;95790.75;5085543;28;20517;-70
2022/04/24 08:32:30;;;;;;;2.10;1.23;;;;;;;12.97;61.08;95799.25;5068560;28;20807;-68
2022/04/24 08:34:58;;;;;;;1.87;1.10;;;;;;;12.99;60.85;95801.66;5069651;28;20518;-69
2022/04/24 08:37:24;;;;;;;1.00;0.70;;;;;;;12.94;61.14;95804.91;5081597;28;20298;-70
2022/04/24 08:39:50;;;;;;;1.50;0.90;;;;;;;12.79;61.41;95805.06;5068166;28;20430;-72
2022/04/24 08:42:18;;;;;;;2.20;1.00;;;;;;;12.87;61.23;95804.91;5074779;28;20424;-73
2022/04/24 08:44:46;;;;;;;2.50;0.73;;;;;;;12.93;61.14;95811.16;5074648;28;20182;-69
2022/04/24 08:47:14;;;;;;;2.30;0.70;;;;;;;13.00;61.06;95801.44;5089814;28;20500;-70
2022/04/24 08:49:40;;;;;;;2.00;0.90;;;;;;;13.00;61.37;95801.44;5089029;28;20428;-69
2022/04/24 08:52:05;;;;;;;1.57;0.90;;;;;;;13.16;61.58;95805.53;5090127;28;20902;-70
2022/04/24 08:54:31;;;;;;;1.20;0.80;;;;;;;13.23;61.21;95812.59;5090834;28;20193;-70
2022/04/24 08:56:58;;;;;;;0.90;0.60;;;;;;;13.28;61.48;95818.84;5089504;28;20201;-70
2022/04/24 08:59:24;;;;;;;1.00;0.80;;;;;;;13.25;61.08;95815.81;5083197;28;20212;-70
2022/04/24 09:01:50;;;;;;;1.83;0.70;;;;;;;13.15;61.61;95816.22;5090469;28;20914;-69
2022/04/24 09:04:16;;;;;;;1.40;1.00;;;;;;;13.03;61.96;95818.66;5090937;28;20208;-70
2022/04/24 09:06:42;;;;;;;1.00;0.90;;;;;;;13.13;61.19;95807.72;5091045;28;20973;-71
2022/04/24 09:09:08;;;;;;;1.33;1.07;;;;;;;13.07;61.41;95814.59;5089545;28;20467;-69
2022/04/24 09:11:34;;;;;;;1.17;0.80;;;;;;;13.16;61.34;95815.22;5078444;28;20187;-71
2022/04/24 09:14:14;;;;;;;1.00;0.77;;;;;;;13.22;61.08;95814.41;5057167;28;20440;-70
2022/04/24 09:16:47;;;;;;;2.63;0.73;;;;;;;13.23;61.54;95818.69;5086857;28;20280;-71
2022/04/24 09:19:16;;;;;;;2.73;1.97;;;;;;;13.04;61.71;95821.09;5085001;28;20428;-70
2022/04/24 09:21:42;;;;;;;3.30;1.30;;;;;;;13.24;61.23;95832.63;5072885;28;20872;-70
2022/04/24 09:24:08;;;;;;;2.53;2.20;;;;;;;13.25;61.51;95826.34;5081162;28;20451;-71
2022/04/24 09:26:33;;;;;;;6.60;1.43;;;;;;;12.96;61.99;95834.44;5080441;28;20209;-70
2022/04/24 09:28:59;;;;;;;1.07;0.97;;;;;;;13.03;62.31;95835.25;5083682;28;20268;-70
2022/04/24 09:31:29;;;;;;;1.10;1.00;;;;;;;13.09;61.80;95838.88;5075273;28;20181;-70
2022/04/24 09:33:54;;;;;;;1.30;1.20;;;;;;;13.21;62.07;95841.75;5068309;28;20182;-70
2022/04/24 09:36:24;;;;;;;1.20;1.00;;;;;;;13.31;61.50;95836.03;5089836;28;21085;-71
2022/04/24 09:38:49;;;;;;;3.00;1.60;;;;;;;13.30;61.44;95840.50;5090240;28;20552;-71
2022/04/24 09:41:20;;;;;;;1.57;1.00;;;;;;;13.37;61.44;95841.31;5090675;28;20515;-70
2022/04/24 09:43:46;;;;;;;1.10;1.00;;;;;;;13.41;61.42;95844.41;5072740;28;20209;-69
2022/04/24 09:46:12;;;;;;;1.60;1.03;;;;;;;13.46;61.51;95844.56;5090557;28;20475;-69
2022/04/24 09:48:37;;;;;;;1.20;1.10;;;;;;;13.42;61.25;95850.47;5082914;28;20801;-72
2022/04/24 09:51:03;;;;;;;2.43;1.47;;;;;;;13.41;61.18;95851.47;5090079;28;20181;-70
2022/04/24 09:53:29;;;;;;;1.97;1.07;;;;;;;13.48;61.58;95855.72;5092988;28;20184;-70
2022/04/24 09:55:55;;;;;;;2.10;1.20;;;;;;;13.23;62.18;95846.78;5091885;28;20209;-71
2022/04/24 09:58:21;;;;;;;1.23;0.90;;;;;;;13.40;62.18;95853.31;5094039;28;20427;-69
2022/04/24 10:00:47;;;;;;;1.20;0.90;;;;;;;13.46;61.57;95854.31;5091896;28;20712;-69
2022/04/24 10:03:16;;;;;;;1.97;1.10;;;;;;;13.57;61.73;95856.31;5094250;28;20547;-70
2022/04/24 10:05:46;;;;;;;1.83;1.27;;;;;;;13.61;61.89;95862.78;5092712;28;20174;-69
2022/04/24 10:08:13;;;;;;;1.77;0.90;;;;;;;13.53;61.75;95852.47;5094109;28;20921;-70
2022/04/24 10:10:38;;;;;;;1.20;1.10;;;;;;;13.44;61.80;95856.34;5092841;28;20911;-69
2022/04/24 10:13:06;;;;;;;4.03;1.23;;;;;;;13.58;62.21;95862.38;5080010;28;20440;-71
2022/04/24 10:15:33;;;;;;;2.40;1.17;;;;;;;13.71;61.92;95869.47;5082231;28;20178;-70
2022/04/24 10:18:13;;;;;;;1.60;1.20;;;;;;;13.72;61.95;95868.47;5092070;28;20434;-71
2022/04/24 10:21:11;;;;;;;1.20;1.10;;;;;;;13.65;61.54;95869.25;5090895;28;20954;-69
2022/04/24 10:23:37;;;;;;;3.97;1.20;;;;;;;13.74;61.49;95866.41;5094466;28;20474;-69
2022/04/24 10:26:14;;;;;;;4.30;1.33;;;;;;;13.84;61.02;95869.44;5091131;28;20824;-70
2022/04/24 10:28:40;;;;;;;1.53;1.27;;;;;;;13.70;61.41;95876.53;5096687;28;20442;-70
2022/04/24 10:31:09;;;;;;;1.30;1.00;;;;;;;13.56;60.88;95882.81;5098145;28;20439;-71
2022/04/24 10:33:36;;;;;;;3.00;1.17;;;;;;;13.67;61.25;95877.78;5084875;28;20852;-69
2022/04/24 10:36:15;;;;;;;5.43;1.30;;;;;;;13.64;61.45;95872.09;5078554;28;20555;-70
2022/04/24 10:38:50;;;;;;;2.43;1.43;;;;;;;13.78;61.69;95878.16;5079899;28;20435;-70
2022/04/24 10:41:17;;;;;;;2.43;1.30;;;;;;;13.84;61.38;95882.63;5069703;28;20429;-70
2022/04/24 10:43:52;;;;;;;1.93;1.13;;;;;;;13.80;61.70;95886.66;5068001;28;20460;-69
2022/04/24 10:46:28;;;;;;;4.23;1.37;;;;;;;13.85;61.63;95889.50;5070210;28;20445;-70
2022/04/24 10:49:05;;;;;;;1.60;1.30;;;;;;;13.95;61.54;95887.25;5085911;28;20797;-71
2022/04/24 10:51:32;;;;;;;2.43;1.23;;;;;;;13.84;61.34;95893.16;5080580;28;20421;-71
2022/04/24 10:54:04;;;;;;;2.97;2.00;;;;;;;13.91;61.64;95888.66;5096866;28;20428;-70
2022/04/24 10:56:29;;;;;;;1.93;1.10;;;;;;;13.97;60.96;95889.66;5086983;28;20453;-70
2022/04/24 10:59:10;;;;;;;2.60;1.50;;;;;;;13.92;61.13;95895.56;5098097;28;20428;-70
2022/04/24 11:01:37;;;;;;;3.53;1.93;;;;;;;13.92;61.29;95892.94;5094332;28;20215;-70
2022/04/24 11:04:06;;;;;;;3.20;2.00;;;;;;;13.81;60.91;95898.81;5073196;28;20566;-71
2022/04/24 11:06:33;;;;;;;1.60;1.43;;;;;;;13.82;61.38;95895.97;5091362;28;20966;-71
2022/04/24 11:09:11;;;;;;;1.70;1.20;;;;;;;13.80;61.07;95900.63;5098703;28;20431;-71
2022/04/24 11:12:12;;;;;;;7.43;1.67;;;;;;;13.86;61.15;95896.38;5088592;28;20460;-69
2022/04/24 11:14:38;;;;;;;2.60;1.80;;;;;;;13.73;60.91;95899.84;5071217;28;20441;-70
2022/04/24 11:17:06;;;;;;;2.47;1.67;;;;;;;13.60;61.05;95903.31;5087963;28;20802;-69
2022/04/24 11:19:35;;;;;;;4.90;2.10;;;;;;;13.57;61.11;95906.34;5079877;28;20186;-71
2022/04/24 11:22:07;;;;;;;4.83;1.83;;;;;;;13.71;61.26;95908.97;5085335;28;20807;-70
2022/04/24 11:24:38;;;;;;;3.67;2.23;;;;;;;13.75;61.36;95910.16;5093137;28;20458;-70
2022/04/24 11:27:04;;;;;;;2.17;1.50;;;;;;;13.87;60.82;95905.88;5093588;28;20443;-70